createdAt,value
2023-09-03T00:07:30.610Z,19.5
2023-09-03T00:23:13.464Z,20.6
2023-09-03T00:38:56.009Z,17
2023-09-03T00:54:38.226Z,18.4
2023-09-03T01:10:20.558Z,19
2023-09-03T01:26:03.698Z,16.1
2023-09-03T01:41:46.138Z,15.2
2023-09-03T01:57:28.321Z,17.29
2023-09-03T02:13:10.393Z,16.4
2023-09-03T02:28:53.347Z,16.6
2023-09-03T02:44:35.606Z,16.4
2023-09-03T03:00:17.837Z,16.29
2023-09-03T03:16:00.784Z,18.9
2023-09-03T03:31:43.659Z,18.9
2023-09-03T03:47:26.263Z,19.79
2023-09-03T03:48:14.644Z,22
2023-09-03T04:03:56.864Z,23.4
2023-09-03T04:19:39.618Z,21.5
2023-09-03T04:35:21.722Z,22.9
2023-09-03T04:51:04.217Z,21
2023-09-03T05:06:47.218Z,10.6
2023-09-03T05:22:29.672Z,6.9
2023-09-03T05:38:12.423Z,5.3
2023-09-03T05:53:54.786Z,5
2023-09-03T06:09:36.892Z,3.9
2023-09-03T06:25:19.817Z,3.7
2023-09-03T06:41:02.644Z,3.5
2023-09-03T06:56:45.332Z,3.1
2023-09-03T07:12:27.834Z,2.9
2023-09-03T07:28:10.221Z,2.5
2023-09-03T07:43:52.681Z,2.2
2023-09-03T07:59:35.193Z,1.8
2023-09-03T08:15:17.585Z,1.5
2023-09-03T08:30:59.655Z,1.4
2023-09-03T08:46:42.532Z,1.6
2023-09-03T09:02:25.116Z,1.7
2023-09-03T09:18:07.818Z,1.4
2023-09-03T09:33:50.914Z,1.2
2023-09-03T09:49:33.323Z,1.2
2023-09-03T10:05:15.867Z,1.3
2023-09-03T10:20:57.934Z,0.9
2023-09-03T10:36:39.960Z,0.9
2023-09-03T10:52:22.159Z,0.9
2023-09-03T11:08:04.343Z,0.8
2023-09-03T11:23:46.648Z,0.9
2023-09-03T11:39:28.543Z,0.9
2023-09-03T11:55:10.702Z,1.1
2023-09-03T12:10:52.896Z,1.1
2023-09-03T12:26:34.935Z,1.1
2023-09-03T12:42:17.575Z,0.9
2023-09-03T12:58:00.381Z,1.1
2023-09-03T13:13:42.814Z,1.2
2023-09-03T13:29:25.525Z,0.9
2023-09-03T13:45:08.149Z,1.1
2023-09-03T14:00:51.022Z,0.9
2023-09-03T14:16:33.013Z,1
2023-09-03T14:32:15.520Z,1.5
2023-09-03T14:47:58.100Z,1.1
2023-09-03T15:03:40.323Z,0.9
2023-09-03T15:19:23.122Z,0.9
2023-09-03T15:35:05.135Z,0.8
2023-09-03T15:50:47.345Z,1
2023-09-03T16:06:29.517Z,1.1
2023-09-03T16:22:11.862Z,1.2
2023-09-03T16:37:54.564Z,1.1
2023-09-03T16:53:37.298Z,1.3
2023-09-03T17:09:20.072Z,1.1
2023-09-03T17:25:02.499Z,1.5
2023-09-03T17:40:45.362Z,6.6
2023-09-03T17:56:27.655Z,1.9
2023-09-03T18:12:09.931Z,1.5
2023-09-03T18:27:52.017Z,4.5
2023-09-03T18:43:34.404Z,2.2
2023-09-03T18:59:16.538Z,2.09
2023-09-03T19:14:59.043Z,2.3
2023-09-03T19:30:41.542Z,4.9
2023-09-03T19:46:23.727Z,2.4
2023-09-03T20:02:05.836Z,2.9
2023-09-03T20:49:13.933Z,3.9
2023-09-03T21:04:56.751Z,3.7
2023-09-03T21:20:38.878Z,13.2
2023-09-03T21:36:21.828Z,4.3
2023-09-03T21:52:04.510Z,4.69
2023-09-03T22:07:47.522Z,5.1
2023-09-03T22:23:30.444Z,5
2023-09-03T22:39:13.479Z,5
2023-09-03T22:54:56.223Z,5.3
2023-09-03T23:10:38.310Z,5.1
2023-09-03T23:26:21.043Z,5.1
2023-09-03T23:42:04.038Z,4.8
2023-09-03T23:57:46.123Z,4.8
